Time;durP1;ratioP1;P1;durP2;ratioP2;P2;SDS_P1;SDS_P2;PMS_P1;PMS_P2;Temp;Humidity;BMP_temperature;BMP_pressure;BME280_temperature;BME280_humidity;BME280_pressure;Samples;Min_cycle;Max_cycle;Signal;HPM_P1;HPM_P2
2023/03/10 00:00:17;;;;;;;6.10;2.97;;;;;;;;;;5003063;28;20041;-76
2023/03/10 00:02:48;;;;;;;5.72;3.13;;;;;;;;;;5004647;28;20021;-76
2023/03/10 00:05:15;;;;;;;5.00;3.03;;;;;;;;;;4984869;28;20367;-76
2023/03/10 00:07:40;;;;;;;4.90;2.90;;;;;;;;;;4985473;28;20034;-76
2023/03/10 00:10:06;;;;;;;5.45;3.28;;;;;;;;;;5004659;28;20029;-76
2023/03/10 00:12:31;;;;;;;5.60;3.15;;;;;;;;;;4986834;28;20848;-76
2023/03/10 00:14:56;;;;;;;6.78;3.25;;;;;;;;;;4985173;28;20100;-76
2023/03/10 00:17:22;;;;;;;4.80;2.97;;;;;;;;;;4989605;28;20566;-77
2023/03/10 00:19:47;;;;;;;6.30;3.30;;;;;;;;;;4990439;28;20042;-76
2023/03/10 00:22:12;;;;;;;5.20;3.05;;;;;;;;;;5005290;28;20096;-76
2023/03/10 00:24:38;;;;;;;4.57;2.80;;;;;;;;;;5004875;28;20025;-76
2023/03/10 00:27:03;;;;;;;5.30;2.88;;;;;;;;;;4986916;28;20033;-76
2023/03/10 00:29:29;;;;;;;4.40;2.70;;;;;;;;;;5008628;28;20021;-76
2023/03/10 00:31:54;;;;;;;4.88;3.03;;;;;;;;;;5003465;28;20037;-76
2023/03/10 00:34:19;;;;;;;5.50;3.10;;;;;;;;;;4987553;28;20548;-76
2023/03/10 00:36:44;;;;;;;7.63;3.15;;;;;;;;;;5006321;28;20026;-76
2023/03/10 00:39:10;;;;;;;5.80;3.60;;;;;;;;;;4986063;28;20081;-76
2023/03/10 00:41:37;;;;;;;5.13;3.13;;;;;;;;;;5006912;28;20025;-75
2023/03/10 00:44:05;;;;;;;5.43;3.42;;;;;;;;;;5003641;28;20036;-77
2023/03/10 00:46:32;;;;;;;5.30;3.30;;;;;;;;;;4989274;28;20021;-76
2023/03/10 00:48:58;;;;;;;4.75;3.00;;;;;;;;;;5005551;28;20033;-76
2023/03/10 00:51:23;;;;;;;5.50;2.58;;;;;;;;;;5001708;28;20036;-77
2023/03/10 00:53:49;;;;;;;4.80;2.90;;;;;;;;;;4990098;28;20073;-76
2023/03/10 00:56:23;;;;;;;4.88;2.72;;;;;;;;;;4987450;28;20042;-75
2023/03/10 00:58:51;;;;;;;4.93;2.95;;;;;;;;;;5006650;28;20482;-76
2023/03/10 01:01:22;;;;;;;5.47;2.97;;;;;;;;;;4987707;28;20065;-76
2023/03/10 01:03:54;;;;;;;5.47;3.08;;;;;;;;;;4988295;28;20116;-76
2023/03/10 01:06:20;;;;;;;4.93;3.10;;;;;;;;;;5006335;28;20061;-76
2023/03/10 01:08:45;;;;;;;5.22;3.00;;;;;;;;;;5008411;28;20033;-77
2023/03/10 01:11:14;;;;;;;7.10;3.00;;;;;;;;;;5007260;28;20092;-77
2023/03/10 01:13:40;;;;;;;5.50;3.17;;;;;;;;;;5006356;28;20041;-75
2023/03/10 01:16:05;;;;;;;4.32;2.63;;;;;;;;;;5002771;28;20030;-76
2023/03/10 01:18:31;;;;;;;5.28;2.83;;;;;;;;;;5007654;28;20112;-76
2023/03/10 01:20:56;;;;;;;6.45;3.08;;;;;;;;;;5002502;28;20045;-77
2023/03/10 01:23:23;;;;;;;5.38;3.00;;;;;;;;;;5001777;28;20033;-76
2023/03/10 01:25:49;;;;;;;5.45;2.97;;;;;;;;;;4981664;28;20497;-76
2023/03/10 01:28:15;;;;;;;5.32;2.83;;;;;;;;;;4999801;28;20063;-76
2023/03/10 01:30:41;;;;;;;4.68;2.92;;;;;;;;;;5002148;28;20034;-76
2023/03/10 01:33:07;;;;;;;5.82;3.05;;;;;;;;;;5007106;28;20435;-76
2023/03/10 01:35:33;;;;;;;5.38;3.10;;;;;;;;;;4984671;28;20401;-77
2023/03/10 01:37:59;;;;;;;4.95;3.10;;;;;;;;;;4987671;28;20030;-76
2023/03/10 01:40:25;;;;;;;4.20;2.85;;;;;;;;;;5008190;28;20038;-76
2023/03/10 01:43:11;;;;;;;5.93;3.20;;;;;;;;;;4991174;28;20030;-76
2023/03/10 01:45:36;;;;;;;6.50;3.13;;;;;;;;;;4990937;28;20093;-76
2023/03/10 01:48:02;;;;;;;5.75;3.20;;;;;;;;;;5005681;28;20022;-76
2023/03/10 01:50:27;;;;;;;5.32;3.33;;;;;;;;;;4996925;28;20045;-77
2023/03/10 01:52:57;;;;;;;6.68;3.15;;;;;;;;;;4994746;28;20022;-77
2023/03/10 01:55:28;;;;;;;5.80;3.10;;;;;;;;;;4988961;28;20048;-76
2023/03/10 01:57:55;;;;;;;5.07;3.08;;;;;;;;;;5010484;28;20026;-76
2023/03/10 02:00:22;;;;;;;5.50;3.05;;;;;;;;;;4984343;28;20120;-76
2023/03/10 02:02:59;;;;;;;5.32;2.90;;;;;;;;;;4981616;28;20176;-76
2023/03/10 02:05:26;;;;;;;5.47;3.05;;;;;;;;;;4998272;28;20547;-76
2023/03/10 02:07:54;;;;;;;6.65;3.20;;;;;;;;;;4998650;28;20393;-76
2023/03/10 02:10:20;;;;;;;5.57;3.20;;;;;;;;;;5004145;28;20058;-77
2023/03/10 02:12:45;;;;;;;5.97;3.38;;;;;;;;;;5009895;28;20115;-76
2023/03/10 02:15:12;;;;;;;5.20;3.00;;;;;;;;;;5007470;28;20079;-76
2023/03/10 02:17:38;;;;;;;5.68;3.53;;;;;;;;;;5014392;28;20473;-76
2023/03/10 02:20:28;;;;;;;7.30;3.30;;;;;;;;;;4998147;28;20025;-76
2023/03/10 02:22:54;;;;;;;5.55;3.35;;;;;;;;;;4992912;28;20030;-76
2023/03/10 02:25:29;;;;;;;6.97;3.33;;;;;;;;;;4994009;28;20040;-76
2023/03/10 02:27:55;;;;;;;5.40;3.10;;;;;;;;;;5007778;28;20045;-77
2023/03/10 02:30:28;;;;;;;5.30;3.53;;;;;;;;;;5017896;28;20026;-76
2023/03/10 02:32:57;;;;;;;5.65;3.60;;;;;;;;;;5013975;28;20024;-76
2023/03/10 02:35:23;;;;;;;6.00;3.60;;;;;;;;;;4995759;28;20574;-76
2023/03/10 02:37:49;;;;;;;6.85;3.90;;;;;;;;;;4999192;28;20113;-75
2023/03/10 02:40:39;;;;;;;6.03;3.42;;;;;;;;;;5011460;28;20128;-76
2023/03/10 02:43:07;;;;;;;5.60;3.33;;;;;;;;;;4989177;28;20053;-76
2023/03/10 02:45:35;;;;;;;6.25;3.75;;;;;;;;;;5008304;28;20470;-77
2023/03/10 02:48:00;;;;;;;6.95;3.80;;;;;;;;;;4996948;28;20057;-77
2023/03/10 02:50:29;;;;;;;5.65;3.40;;;;;;;;;;4997112;28;20081;-76
2023/03/10 02:53:02;;;;;;;7.38;3.90;;;;;;;;;;5013607;28;20433;-76
2023/03/10 02:55:27;;;;;;;6.18;3.35;;;;;;;;;;5016643;28;20022;-76
2023/03/10 02:57:53;;;;;;;5.88;3.50;;;;;;;;;;4999176;28;20385;-76
2023/03/10 03:00:19;;;;;;;6.70;3.58;;;;;;;;;;5007188;28;20541;-76
2023/03/10 03:02:44;;;;;;;5.80;3.50;;;;;;;;;;5010578;28;20026;-76
2023/03/10 03:05:10;;;;;;;4.97;3.50;;;;;;;;;;5014949;28;20033;-76
2023/03/10 03:07:35;;;;;;;5.97;3.58;;;;;;;;;;4995118;28;20073;-77
2023/03/10 03:10:01;;;;;;;6.32;3.63;;;;;;;;;;5016967;28;20076;-76
2023/03/10 03:12:26;;;;;;;5.88;3.35;;;;;;;;;;5015227;28;20028;-76
2023/03/10 03:14:51;;;;;;;6.38;3.78;;;;;;;;;;5017650;28;20382;-76
2023/03/10 03:17:17;;;;;;;5.72;3.10;;;;;;;;;;4997942;28;20022;-77
2023/03/10 03:19:42;;;;;;;5.95;3.55;;;;;;;;;;4999962;28;20040;-76
2023/03/10 03:22:07;;;;;;;5.20;3.15;;;;;;;;;;4994358;28;20033;-77
2023/03/10 03:24:33;;;;;;;5.43;3.15;;;;;;;;;;5017496;28;20018;-77
2023/03/10 03:26:58;;;;;;;5.82;3.63;;;;;;;;;;5017753;28;20118;-76
2023/03/10 03:29:24;;;;;;;5.40;3.50;;;;;;;;;;5011916;28;20528;-76
2023/03/10 03:31:49;;;;;;;6.55;3.85;;;;;;;;;;4991552;28;21757;-76
2023/03/10 03:34:14;;;;;;;7.03;4.35;;;;;;;;;;4982202;28;20034;-76
2023/03/10 03:36:40;;;;;;;6.65;4.07;;;;;;;;;;5004778;28;20037;-76
2023/03/10 03:39:06;;;;;;;6.53;3.95;;;;;;;;;;5005539;28;20026;-76
2023/03/10 03:41:32;;;;;;;8.55;3.88;;;;;;;;;;5002326;28;20048;-76
2023/03/10 03:43:57;;;;;;;6.28;3.78;;;;;;;;;;5013581;28;20030;-76
2023/03/10 03:46:23;;;;;;;6.00;3.65;;;;;;;;;;5006636;28;20363;-76
2023/03/10 03:48:48;;;;;;;6.25;3.40;;;;;;;;;;5014238;28;20198;-76
2023/03/10 03:51:13;;;;;;;6.07;3.33;;;;;;;;;;5005427;28;20025;-76
2023/03/10 03:53:39;;;;;;;5.38;3.33;;;;;;;;;;5013595;28;20030;-76
2023/03/10 03:56:04;;;;;;;5.30;3.45;;;;;;;;;;5013694;28;20041;-77
2023/03/10 03:58:30;;;;;;;6.45;3.88;;;;;;;;;;5017915;28;20079;-76
2023/03/10 04:00:55;;;;;;;6.28;3.78;;;;;;;;;;5001558;28;20034;-76
2023/03/10 04:03:20;;;;;;;5.55;3.50;;;;;;;;;;4995424;28;20022;-76
2023/03/10 04:05:46;;;;;;;7.57;4.03;;;;;;;;;;5010802;28;20054;-76
2023/03/10 04:08:12;;;;;;;6.43;3.65;;;;;;;;;;5015843;28;20548;-76
2023/03/10 04:10:38;;;;;;;5.88;3.70;;;;;;;;;;5010444;28;20026;-76
2023/03/10 04:13:03;;;;;;;7.03;4.05;;;;;;;;;;4990328;28;21052;-76
2023/03/10 04:15:28;;;;;;;7.03;3.70;;;;;;;;;;5013484;28;20034;-77
2023/03/10 04:17:56;;;;;;;5.75;3.60;;;;;;;;;;4995110;28;20041;-77
2023/03/10 04:20:23;;;;;;;5.43;3.35;;;;;;;;;;5007297;28;20033;-76
2023/03/10 04:22:49;;;;;;;8.10;4.00;;;;;;;;;;4994495;28;20036;-77
2023/03/10 04:25:14;;;;;;;7.22;3.90;;;;;;;;;;4997222;28;20026;-77
2023/03/10 04:27:39;;;;;;;8.48;4.03;;;;;;;;;;5020471;28;20481;-75
2023/03/10 04:30:06;;;;;;;6.80;3.60;;;;;;;;;;5013084;28;20022;-76
2023/03/10 04:32:31;;;;;;;8.45;3.85;;;;;;;;;;5003088;28;20497;-76
2023/03/10 04:34:56;;;;;;;6.50;3.92;;;;;;;;;;4991488;28;20034;-77
2023/03/10 04:37:22;;;;;;;7.00;3.70;;;;;;;;;;5000601;28;20029;-76
2023/03/10 04:39:47;;;;;;;6.15;3.78;;;;;;;;;;4995131;28;20104;-76
2023/03/10 04:42:12;;;;;;;6.68;3.75;;;;;;;;;;5012423;28;20064;-76
2023/03/10 04:44:38;;;;;;;7.03;3.85;;;;;;;;;;4997924;28;20024;-76
2023/03/10 04:47:03;;;;;;;6.60;4.05;;;;;;;;;;5009861;28;20508;-76
2023/03/10 04:49:29;;;;;;;8.00;3.97;;;;;;;;;;5006272;28;20026;-77
2023/03/10 04:51:54;;;;;;;6.50;3.42;;;;;;;;;;4998590;28;20038;-77
2023/03/10 04:54:20;;;;;;;7.30;3.97;;;;;;;;;;5007587;28;20052;-76
2023/03/10 04:56:45;;;;;;;6.88;4.22;;;;;;;;;;5011149;28;20478;-77
2023/03/10 04:59:10;;;;;;;7.93;3.72;;;;;;;;;;5011530;28;20041;-76
2023/03/10 05:01:35;;;;;;;9.18;4.15;;;;;;;;;;4991837;28;20441;-76
2023/03/10 05:04:03;;;;;;;7.00;4.03;;;;;;;;;;5013062;28;20030;-76
2023/03/10 05:06:29;;;;;;;8.10;4.47;;;;;;;;;;5014968;28;20389;-77
2023/03/10 05:08:54;;;;;;;8.10;4.50;;;;;;;;;;4992551;28;20037;-76
2023/03/10 05:11:20;;;;;;;7.80;3.88;;;;;;;;;;4997038;28;20022;-77
2023/03/10 05:13:45;;;;;;;6.93;3.90;;;;;;;;;;4994686;28;20056;-76
2023/03/10 05:16:16;;;;;;;8.77;4.43;;;;;;;;;;5006230;28;20391;-76
2023/03/10 05:18:41;;;;;;;5.90;3.75;;;;;;;;;;4992009;28;20030;-77
2023/03/10 05:21:07;;;;;;;7.53;4.18;;;;;;;;;;4992050;28;20025;-76
2023/03/10 05:23:32;;;;;;;7.97;3.88;;;;;;;;;;4992698;28;20534;-75
2023/03/10 05:26:02;;;;;;;7.47;3.88;;;;;;;;;;5012349;28;20026;-76
2023/03/10 05:28:27;;;;;;;6.28;3.75;;;;;;;;;;5016001;28;20025;-76
2023/03/10 05:30:53;;;;;;;7.35;3.95;;;;;;;;;;4995041;28;20048;-76
2023/03/10 05:33:18;;;;;;;8.30;4.10;;;;;;;;;;4995367;28;20038;-76
2023/03/10 05:35:43;;;;;;;6.90;3.55;;;;;;;;;;5012535;28;20441;-76
2023/03/10 05:38:09;;;;;;;7.63;3.88;;;;;;;;;;4990560;28;20026;-76
2023/03/10 05:40:35;;;;;;;6.28;3.72;;;;;;;;;;5001790;28;20037;-76
2023/03/10 05:43:01;;;;;;;7.70;3.55;;;;;;;;;;5014092;28;20116;-76
2023/03/10 05:45:26;;;;;;;5.70;3.17;;;;;;;;;;5008922;28;20108;-76
2023/03/10 05:47:52;;;;;;;7.22;3.97;;;;;;;;;;4989479;28;20021;-75
2023/03/10 05:50:17;;;;;;;6.18;3.28;;;;;;;;;;5007667;28;20057;-77
2023/03/10 05:52:43;;;;;;;7.00;3.90;;;;;;;;;;4991406;28;20038;-76
2023/03/10 05:55:15;;;;;;;7.55;3.97;;;;;;;;;;4994573;28;20029;-76
2023/03/10 05:57:40;;;;;;;6.72;3.22;;;;;;;;;;4988539;28;20033;-76
2023/03/10 06:00:09;;;;;;;6.13;3.30;;;;;;;;;;5008392;28;20037;-75
2023/03/10 06:02:35;;;;;;;5.78;3.15;;;;;;;;;;4988416;28;20030;-76
2023/03/10 06:05:01;;;;;;;5.20;3.10;;;;;;;;;;5006533;28;20033;-75
2023/03/10 06:07:26;;;;;;;7.78;3.40;;;;;;;;;;5005007;28;20030;-76
2023/03/10 06:09:53;;;;;;;8.00;3.08;;;;;;;;;;5009472;28;20084;-76
2023/03/10 06:12:19;;;;;;;5.75;3.22;;;;;;;;;;4988743;28;20083;-76
2023/03/10 06:14:45;;;;;;;4.93;3.00;;;;;;;;;;5003862;28;20494;-77
2023/03/10 06:17:10;;;;;;;5.93;3.50;;;;;;;;;;4996924;28;20034;-76
2023/03/10 06:19:35;;;;;;;6.10;3.08;;;;;;;;;;4989418;28;20022;-76
2023/03/10 06:22:01;;;;;;;5.45;3.08;;;;;;;;;;4983188;28;20034;-76
2023/03/10 06:24:27;;;;;;;6.97;3.00;;;;;;;;;;4986377;28;20030;-76
2023/03/10 06:26:53;;;;;;;6.13;3.22;;;;;;;;;;5005147;28;20069;-76
2023/03/10 06:29:19;;;;;;;6.50;3.13;;;;;;;;;;5003173;28;20058;-73
2023/03/10 06:31:44;;;;;;;6.32;3.05;;;;;;;;;;5000300;28;20072;-73
2023/03/10 06:34:09;;;;;;;6.80;2.90;;;;;;;;;;5004364;28;20037;-76
2023/03/10 06:36:36;;;;;;;5.88;3.13;;;;;;;;;;5007532;28;20417;-73
2023/03/10 06:39:02;;;;;;;6.47;3.40;;;;;;;;;;5012285;28;20025;-73
2023/03/10 06:41:27;;;;;;;5.50;3.05;;;;;;;;;;5013407;28;20030;-73
2023/03/10 06:43:53;;;;;;;7.03;3.13;;;;;;;;;;5011106;28;20123;-73
2023/03/10 06:46:18;;;;;;;5.50;2.72;;;;;;;;;;4992120;28;20120;-73
2023/03/10 06:48:44;;;;;;;5.60;2.92;;;;;;;;;;4997949;28;20033;-74
2023/03/10 06:51:16;;;;;;;6.43;3.25;;;;;;;;;;5009661;28;20157;-73
2023/03/10 06:53:41;;;;;;;6.07;3.17;;;;;;;;;;4989586;28;20021;-73
2023/03/10 06:56:16;;;;;;;7.85;2.83;;;;;;;;;;5014483;28;20049;-73
2023/03/10 06:58:43;;;;;;;6.05;3.30;;;;;;;;;;5007657;28;20083;-73
2023/03/10 07:01:28;;;;;;;5.38;2.75;;;;;;;;;;5006146;28;20032;-73
2023/03/10 07:03:54;;;;;;;6.15;2.83;;;;;;;;;;5008271;28;20032;-73
2023/03/10 07:06:20;;;;;;;7.20;3.17;;;;;;;;;;5013085;28;20048;-73
2023/03/10 07:08:46;;;;;;;5.60;2.60;;;;;;;;;;4997888;28;20483;-73
2023/03/10 07:11:11;;;;;;;6.18;3.17;;;;;;;;;;4988577;28;20034;-75
2023/03/10 07:13:37;;;;;;;6.43;3.28;;;;;;;;;;5004613;28;20029;-73
2023/03/10 07:16:03;;;;;;;6.72;3.03;;;;;;;;;;5013637;28;20418;-73
2023/03/10 07:18:29;;;;;;;6.50;3.50;;;;;;;;;;5008839;28;20097;-73
2023/03/10 07:20:55;;;;;;;7.80;3.20;;;;;;;;;;5013375;28;20034;-73
2023/03/10 07:23:21;;;;;;;6.15;2.97;;;;;;;;;;5009102;28;20029;-74
2023/03/10 07:25:55;;;;;;;6.72;3.33;;;;;;;;;;5012820;28;20050;-73
2023/03/10 07:28:21;;;;;;;6.15;3.25;;;;;;;;;;5011388;28;20062;-74
2023/03/10 07:30:48;;;;;;;6.50;3.00;;;;;;;;;;5014055;28;20045;-73
2023/03/10 07:33:13;;;;;;;5.68;3.15;;;;;;;;;;4996249;28;20030;-73
2023/03/10 07:35:38;;;;;;;5.63;2.97;;;;;;;;;;5014905;28;20029;-74
2023/03/10 07:38:04;;;;;;;5.82;3.35;;;;;;;;;;5012170;28;20033;-73
2023/03/10 07:40:29;;;;;;;6.53;3.13;;;;;;;;;;5005104;28;20026;-73
2023/03/10 07:42:55;;;;;;;4.72;2.70;;;;;;;;;;5009506;28;20022;-73
2023/03/10 07:45:22;;;;;;;7.13;3.13;;;;;;;;;;5010361;28;20072;-74
2023/03/10 07:47:49;;;;;;;6.15;2.97;;;;;;;;;;5011768;28;20056;-73
2023/03/10 07:50:15;;;;;;;5.20;3.08;;;;;;;;;;5013861;28;20038;-73
2023/03/10 07:52:41;;;;;;;6.20;3.00;;;;;;;;;;4992900;28;20262;-73
2023/03/10 07:55:07;;;;;;;6.55;2.95;;;;;;;;;;5010501;28;20442;-73
2023/03/10 07:57:32;;;;;;;5.68;2.83;;;;;;;;;;5017235;28;20389;-73
2023/03/10 07:59:58;;;;;;;6.05;2.67;;;;;;;;;;5021658;28;20029;-73
2023/03/10 08:02:23;;;;;;;6.68;3.00;;;;;;;;;;5027656;28;20017;-73
2023/03/10 08:04:48;;;;;;;5.43;2.67;;;;;;;;;;4999326;28;20029;-73
2023/03/10 08:07:13;;;;;;;5.00;2.53;;;;;;;;;;4983273;28;20037;-73
2023/03/10 08:09:39;;;;;;;5.15;2.80;;;;;;;;;;5016401;28;20036;-73
2023/03/10 08:12:05;;;;;;;6.03;2.63;;;;;;;;;;5008776;28;20135;-73
2023/03/10 08:14:31;;;;;;;6.65;2.95;;;;;;;;;;5014923;28;20068;-73
2023/03/10 08:16:57;;;;;;;5.10;2.97;;;;;;;;;;5024598;28;20435;-73
2023/03/10 08:19:24;;;;;;;7.03;3.65;;;;;;;;;;4994116;28;20030;-73
2023/03/10 08:21:49;;;;;;;5.95;3.55;;;;;;;;;;4993168;28;20113;-73
2023/03/10 08:24:15;;;;;;;5.88;3.20;;;;;;;;;;5009197;28;20109;-73
2023/03/10 08:26:40;;;;;;;7.53;3.13;;;;;;;;;;5016631;28;20029;-72
2023/03/10 08:29:05;;;;;;;8.10;3.53;;;;;;;;;;5005137;28;20112;-76
2023/03/10 08:31:31;;;;;;;6.32;3.70;;;;;;;;;;5018617;28;20033;-74
2023/03/10 08:33:57;;;;;;;7.45;3.65;;;;;;;;;;4994812;28;20026;-74
2023/03/10 08:36:26;;;;;;;7.18;3.83;;;;;;;;;;5010053;28;20026;-74
2023/03/10 08:38:53;;;;;;;7.40;3.70;;;;;;;;;;5020459;28;20032;-74
2023/03/10 08:41:27;;;;;;;7.68;3.83;;;;;;;;;;4994233;28;20040;-74
2023/03/10 08:43:53;;;;;;;;;;;;;;;;;;5018619;28;20113;-74
2023/03/10 08:46:20;;;;;;;7.18;3.72;;;;;;;;;;5017429;28;20283;-74
2023/03/10 08:48:45;;;;;;;7.85;3.22;;;;;;;;;;5003218;28;20510;-74
2023/03/10 08:51:11;;;;;;;7.18;3.08;;;;;;;;;;5006563;28;20103;-74
2023/03/10 08:53:37;;;;;;;5.50;3.00;;;;;;;;;;5010450;28;20363;-74
2023/03/10 08:56:04;;;;;;;5.70;2.90;;;;;;;;;;5012906;28;20394;-74
2023/03/10 08:58:29;;;;;;;5.20;2.65;;;;;;;;;;4995477;28;20375;-74
2023/03/10 09:00:55;;;;;;;4.72;2.45;;;;;;;;;;5008297;28;20041;-75
2023/03/10 09:03:21;;;;;;;5.72;2.90;;;;;;;;;;5015253;28;20030;-76
2023/03/10 09:05:47;;;;;;;6.07;2.80;;;;;;;;;;4991582;28;20025;-74
2023/03/10 09:08:12;;;;;;;5.25;2.70;;;;;;;;;;5019666;28;20029;-74
2023/03/10 09:10:39;;;;;;;6.20;3.33;;;;;;;;;;4998738;28;20030;-74
2023/03/10 09:13:04;;;;;;;6.75;3.28;;;;;;;;;;5014396;28;20052;-75
2023/03/10 09:15:29;;;;;;;8.25;2.97;;;;;;;;;;4998096;28;20099;-75
2023/03/10 09:17:55;;;;;;;7.72;3.47;;;;;;;;;;5017953;28;20029;-75
2023/03/10 09:20:24;;;;;;;5.95;3.13;;;;;;;;;;4991959;28;20053;-75
2023/03/10 09:22:51;;;;;;;7.38;3.22;;;;;;;;;;5011678;28;20475;-74
2023/03/10 09:25:17;;;;;;;6.25;3.10;;;;;;;;;;5013775;28;20547;-74
2023/03/10 09:27:43;;;;;;;6.78;2.80;;;;;;;;;;4991627;28;20026;-74
2023/03/10 09:30:09;;;;;;;5.55;2.78;;;;;;;;;;4990777;28;20468;-75
2023/03/10 09:32:34;;;;;;;6.85;3.03;;;;;;;;;;5009335;28;20036;-74
2023/03/10 09:35:00;;;;;;;7.95;3.40;;;;;;;;;;5007304;28;20030;-75
2023/03/10 09:37:25;;;;;;;5.90;2.80;;;;;;;;;;5013921;28;20408;-74
2023/03/10 09:39:51;;;;;;;6.63;3.53;;;;;;;;;;5017066;28;20061;-75
2023/03/10 09:42:25;;;;;;;7.03;3.53;;;;;;;;;;5005772;28;20034;-75
2023/03/10 09:45:31;;;;;;;7.28;3.78;;;;;;;;;;4993483;28;20033;-75
2023/03/10 09:48:08;;;;;;;8.50;3.42;;;;;;;;;;5012859;28;20090;-74
2023/03/10 09:50:42;;;;;;;9.90;4.53;;;;;;;;;;5006502;28;20022;-75
2023/03/10 09:53:26;;;;;;;7.68;3.95;;;;;;;;;;5010091;28;20124;-76
2023/03/10 09:55:52;;;;;;;8.07;4.05;;;;;;;;;;5021308;28;20478;-74
2023/03/10 09:58:31;;;;;;;7.32;4.35;;;;;;;;;;5014131;28;20091;-75
2023/03/10 10:00:58;;;;;;;8.13;4.22;;;;;;;;;;5011039;28;20087;-75
2023/03/10 10:03:42;;;;;;;8.10;4.32;;;;;;;;;;5013512;28;20025;-74
2023/03/10 10:06:15;;;;;;;8.52;4.18;;;;;;;;;;4990919;28;20393;-75
2023/03/10 10:08:47;;;;;;;8.88;4.50;;;;;;;;;;5012416;28;20510;-75
2023/03/10 10:11:15;;;;;;;8.30;4.43;;;;;;;;;;5012740;28;20025;-75
2023/03/10 10:13:41;;;;;;;9.35;4.65;;;;;;;;;;4987263;28;20053;-75
2023/03/10 10:16:31;;;;;;;8.07;3.92;;;;;;;;;;4992771;28;20034;-74
2023/03/10 10:19:00;;;;;;;7.47;4.35;;;;;;;;;;5003932;28;20018;-75
2023/03/10 10:21:34;;;;;;;9.57;4.43;;;;;;;;;;5011113;28;20034;-75
2023/03/10 10:24:00;;;;;;;8.52;4.38;;;;;;;;;;5010746;28;20389;-74
2023/03/10 10:26:26;;;;;;;7.75;4.07;;;;;;;;;;4996333;28;20021;-75
2023/03/10 10:28:56;;;;;;;7.03;3.85;;;;;;;;;;4991714;28;20045;-74
2023/03/10 10:31:28;;;;;;;8.23;4.47;;;;;;;;;;5005545;28;20485;-75
2023/03/10 10:33:56;;;;;;;9.23;4.30;;;;;;;;;;4992977;28;20025;-75
2023/03/10 10:36:53;;;;;;;8.18;3.78;;;;;;;;;;4997483;28;20030;-75
2023/03/10 10:39:39;;;;;;;7.90;4.25;;;;;;;;;;4989223;28;20034;-74
2023/03/10 10:42:24;;;;;;;8.85;4.57;;;;;;;;;;5009542;28;20037;-74
2023/03/10 10:45:20;;;;;;;9.57;4.75;;;;;;;;;;5010753;28;20022;-75
2023/03/10 10:47:47;;;;;;;9.30;4.32;;;;;;;;;;5008544;28;20034;-75
2023/03/10 10:50:22;;;;;;;8.82;4.35;;;;;;;;;;5010124;28;20477;-76
2023/03/10 10:52:51;;;;;;;8.32;4.65;;;;;;;;;;5013626;28;20108;-74
2023/03/10 10:55:28;;;;;;;9.32;4.65;;;;;;;;;;5012313;28;20033;-74
2023/03/10 10:58:00;;;;;;;9.70;4.80;;;;;;;;;;5011072;28;20488;-75
2023/03/10 11:00:32;;;;;;;9.77;5.45;;;;;;;;;;5019687;28;20083;-75
2023/03/10 11:02:58;;;;;;;9.48;4.95;;;;;;;;;;5016668;28;20057;-74
2023/03/10 11:05:31;;;;;;;10.25;5.18;;;;;;;;;;5017347;28;20017;-76
2023/03/10 11:08:36;;;;;;;9.07;5.28;;;;;;;;;;5012346;28;20486;-77
2023/03/10 11:11:15;;;;;;;8.13;4.78;;;;;;;;;;5007703;28;20080;-74
2023/03/10 11:14:06;;;;;;;9.00;4.25;;;;;;;;;;5011647;28;20500;-75
2023/03/10 11:16:51;;;;;;;7.40;3.47;;;;;;;;;;5007457;28;20440;-74
2023/03/10 11:19:23;;;;;;;8.18;3.80;;;;;;;;;;5013002;28;20112;-75
2023/03/10 11:21:52;;;;;;;6.20;3.58;;;;;;;;;;5012092;28;20034;-75
2023/03/10 11:24:26;;;;;;;7.30;3.40;;;;;;;;;;5004265;28;20037;-74
2023/03/10 11:27:07;;;;;;;5.50;2.92;;;;;;;;;;5007810;28;20026;-74
2023/03/10 11:30:09;;;;;;;7.03;3.08;;;;;;;;;;4989502;28;20033;-74
2023/03/10 11:33:00;;;;;;;5.65;2.85;;;;;;;;;;5014831;28;20680;-75
2023/03/10 11:35:46;;;;;;;6.75;2.78;;;;;;;;;;4989153;28;20125;-74
2023/03/10 11:38:29;;;;;;;5.55;2.55;;;;;;;;;;4999497;28;20030;-75
2023/03/10 11:41:03;;;;;;;5.65;2.80;;;;;;;;;;4994856;28;20056;-76
2023/03/10 11:43:54;;;;;;;5.22;2.80;;;;;;;;;;4988358;28;20470;-75
2023/03/10 11:46:38;;;;;;;4.40;2.15;;;;;;;;;;4980108;28;20026;-76
2023/03/10 11:49:11;;;;;;;5.18;2.67;;;;;;;;;;5001956;28;20515;-74
2023/03/10 11:52:00;;;;;;;4.55;2.53;;;;;;;;;;4982524;28;20030;-75
2023/03/10 11:54:33;;;;;;;5.75;1.92;;;;;;;;;;5003845;28;20095;-74
2023/03/10 11:57:02;;;;;;;;;;;;;;;;;;5000267;28;20037;-74
2023/03/10 11:59:30;;;;;;;4.93;2.13;;;;;;;;;;5006356;28;20010;-75
2023/03/10 12:02:13;;;;;;;5.63;2.03;;;;;;;;;;5008329;28;20327;-75
2023/03/10 12:04:45;;;;;;;4.30;1.98;;;;;;;;;;4998431;28;20110;-75
2023/03/10 12:07:30;;;;;;;3.30;1.83;;;;;;;;;;5009480;28;20508;-74
2023/03/10 12:10:02;;;;;;;5.25;1.92;;;;;;;;;;5011409;28;20379;-75
2023/03/10 12:12:32;;;;;;;3.88;1.90;;;;;;;;;;5011244;28;20099;-75
2023/03/10 12:15:01;;;;;;;3.53;1.75;;;;;;;;;;4998313;28;20728;-74
2023/03/10 12:17:27;;;;;;;5.57;1.85;;;;;;;;;;5010559;28;20075;-74
2023/03/10 12:20:09;;;;;;;3.25;1.70;;;;;;;;;;5015363;28;20029;-75
2023/03/10 12:22:39;;;;;;;3.40;1.60;;;;;;;;;;4996003;28;20025;-74
2023/03/10 12:25:27;;;;;;;3.53;1.60;;;;;;;;;;5001404;28;20030;-74
2023/03/10 12:28:19;;;;;;;3.67;1.85;;;;;;;;;;4995747;28;20029;-74
2023/03/10 12:30:59;;;;;;;4.50;1.70;;;;;;;;;;5011446;28;20049;-75
2023/03/10 12:33:36;;;;;;;3.05;1.50;;;;;;;;;;5007187;28;20433;-74
2023/03/10 12:36:17;;;;;;;4.13;1.80;;;;;;;;;;4993357;28;20089;-75
2023/03/10 12:38:52;;;;;;;2.88;1.50;;;;;;;;;;5010619;28;20029;-74
2023/03/10 12:41:42;;;;;;;3.00;1.40;;;;;;;;;;5016930;28;20064;-75
2023/03/10 12:44:42;;;;;;;3.03;1.17;;;;;;;;;;4991929;28;20030;-75
2023/03/10 12:47:07;;;;;;;2.72;1.25;;;;;;;;;;4994169;28;20021;-76
2023/03/10 12:49:35;;;;;;;1.65;1.00;;;;;;;;;;5007224;28;20460;-75
2023/03/10 12:52:19;;;;;;;1.60;0.98;;;;;;;;;;4998404;28;20057;-74
2023/03/10 12:55:20;;;;;;;2.10;1.10;;;;;;;;;;5010313;28;20037;-74
2023/03/10 12:57:51;;;;;;;3.50;1.10;;;;;;;;;;5011675;28;20037;-74
2023/03/10 13:00:51;;;;;;;4.90;1.30;;;;;;;;;;5003332;28;20087;-74
2023/03/10 13:03:55;;;;;;;2.70;1.27;;;;;;;;;;5008186;28;20034;-75
2023/03/10 13:06:34;;;;;;;2.53;1.20;;;;;;;;;;4919886;29;20559;-74
2023/03/10 13:09:09;;;;;;;3.55;1.23;;;;;;;;;;4921873;29;20605;-76
2023/03/10 13:11:38;;;;;;;3.40;1.20;;;;;;;;;;4977728;28;20033;-75
2023/03/10 13:14:18;;;;;;;2.33;1.10;;;;;;;;;;5004375;28;20037;-74
2023/03/10 13:16:59;;;;;;;4.57;1.20;;;;;;;;;;5007902;28;20034;-75
2023/03/10 13:19:27;;;;;;;2.40;1.00;;;;;;;;;;5009142;28;20037;-75
2023/03/10 13:21:53;;;;;;;2.22;1.13;;;;;;;;;;4993566;28;20026;-75
2023/03/10 13:24:30;;;;;;;3.55;1.42;;;;;;;;;;5006822;28;20028;-77
2023/03/10 13:27:18;;;;;;;1.80;1.00;;;;;;;;;;5007572;28;20045;-77
2023/03/10 13:30:02;;;;;;;2.30;1.10;;;;;;;;;;5012584;28;20039;-74
2023/03/10 13:32:28;;;;;;;2.10;1.13;;;;;;;;;;5015761;28;20064;-75
2023/03/10 13:34:54;;;;;;;1.85;1.25;;;;;;;;;;4999191;28;20469;-74
2023/03/10 13:37:20;;;;;;;1.50;0.90;;;;;;;;;;5000873;28;20040;-75
2023/03/10 13:39:45;;;;;;;1.88;0.98;;;;;;;;;;4989346;28;20852;-74
2023/03/10 13:42:21;;;;;;;1.65;0.95;;;;;;;;;;4992578;28;20040;-75
2023/03/10 13:44:47;;;;;;;2.45;0.95;;;;;;;;;;5002986;28;20022;-75
2023/03/10 13:47:15;;;;;;;1.80;0.90;;;;;;;;;;4990192;28;20039;-75
2023/03/10 13:49:46;;;;;;;3.10;1.08;;;;;;;;;;4980029;28;20026;-76
2023/03/10 13:52:13;;;;;;;2.47;0.90;;;;;;;;;;5002848;28;20033;-77
2023/03/10 13:54:41;;;;;;;1.85;1.00;;;;;;;;;;5008827;28;20478;-75
2023/03/10 13:57:12;;;;;;;1.60;0.80;;;;;;;;;;4988760;28;20029;-75
2023/03/10 13:59:39;;;;;;;1.73;0.88;;;;;;;;;;5011877;28;20432;-74
2023/03/10 14:02:38;;;;;;;2.05;1.02;;;;;;;;;;5007053;28;20026;-74
2023/03/10 14:05:06;;;;;;;2.33;1.10;;;;;;;;;;4990194;28;20145;-76
2023/03/10 14:07:36;;;;;;;2.10;0.98;;;;;;;;;;5011829;28;20030;-75
2023/03/10 14:10:04;;;;;;;1.25;0.77;;;;;;;;;;5012599;28;20025;-76
2023/03/10 14:12:37;;;;;;;1.67;0.80;;;;;;;;;;4994059;28;20037;-76
2023/03/10 14:15:18;;;;;;;2.20;0.93;;;;;;;;;;5020432;28;20033;-74
2023/03/10 14:17:48;;;;;;;2.00;1.10;;;;;;;;;;5013204;28;20038;-74
2023/03/10 14:20:29;;;;;;;1.90;1.10;;;;;;;;;;5019371;28;20029;-74
2023/03/10 14:22:55;;;;;;;2.53;1.20;;;;;;;;;;4992488;28;20473;-76
2023/03/10 14:25:22;;;;;;;2.08;1.10;;;;;;;;;;4989954;28;20032;-77
2023/03/10 14:27:53;;;;;;;1.92;1.00;;;;;;;;;;5006220;28;20030;-76
2023/03/10 14:30:30;;;;;;;2.33;1.08;;;;;;;;;;5016850;28;20033;-76
2023/03/10 14:32:57;;;;;;;2.47;1.08;;;;;;;;;;5004409;28;20416;-76
2023/03/10 14:35:24;;;;;;;2.05;1.10;;;;;;;;;;5011260;28;20096;-77
2023/03/10 14:37:51;;;;;;;1.88;1.15;;;;;;;;;;5008705;28;20025;-76
2023/03/10 14:40:18;;;;;;;3.55;1.60;;;;;;;;;;5017739;28;20524;-77
2023/03/10 14:42:45;;;;;;;3.97;1.73;;;;;;;;;;5018836;28;20021;-77
2023/03/10 14:45:32;;;;;;;3.08;1.50;;;;;;;;;;4996216;28;20035;-76
2023/03/10 14:48:02;;;;;;;3.60;1.88;;;;;;;;;;5012964;28;20109;-76
2023/03/10 14:50:28;;;;;;;5.40;2.22;;;;;;;;;;5010294;28;20104;-77
2023/03/10 14:52:54;;;;;;;5.28;2.17;;;;;;;;;;4994176;28;20485;-76
2023/03/10 14:55:20;;;;;;;3.80;2.05;;;;;;;;;;5010492;28;20071;-73
2023/03/10 14:57:46;;;;;;;3.42;1.70;;;;;;;;;;4993052;28;20044;-73